Time;durP1;ratioP1;P1;durP2;ratioP2;P2;SDS_P1;SDS_P2;PMS_P1;PMS_P2;Temp;Humidity;BMP_temperature;BMP_pressure;BME280_temperature;BME280_humidity;BME280_pressure;Samples;Min_cycle;Max_cycle;Signal;HPM_P1;HPM_P2
2022/02/05 00:00:34;;;;;;;50.30;25.98;;;;;;;3.14;100.00;100024.59;5116415;28;20039;-71
2022/02/05 00:03:14;;;;;;;51.72;26.05;;;;;;;3.12;100.00;100022.94;5116788;28;20391;-71
2022/02/05 00:05:48;;;;;;;55.83;25.55;;;;;;;3.11;100.00;100023.84;5116478;28;20040;-71
2022/02/05 00:14:22;;;;;;;51.03;26.67;;;;;;;3.22;100.00;100016.44;5116495;28;20036;-71
2022/02/05 00:39:21;;;;;;;51.25;26.52;;;;;;;3.31;100.00;100063.56;5116313;28;20401;-71
2022/02/05 00:41:53;;;;;;;49.35;26.95;;;;;;;3.38;100.00;100077.44;5116046;28;20139;-71
2022/02/05 00:44:21;;;;;;;47.47;26.83;;;;;;;3.14;100.00;100072.03;5115675;28;20039;-71
2022/02/05 00:46:51;;;;;;;49.05;26.30;;;;;;;3.33;100.00;100072.28;5116016;28;20469;-71
2022/02/05 00:49:20;;;;;;;52.35;27.13;;;;;;;3.15;100.00;100078.16;5116031;28;20544;-70
2022/02/05 00:51:52;;;;;;;55.35;27.50;;;;;;;3.01;100.00;100083.03;5115025;28;20050;-71
2022/02/05 00:54:24;;;;;;;57.40;28.23;;;;;;;2.77;100.00;100067.06;5097993;28;20454;-70
2022/02/05 00:59:34;;;;;;;54.22;27.88;;;;;;;2.84;100.00;100079.16;5114417;28;20060;-71
2022/02/05 01:02:05;;;;;;;54.38;27.10;;;;;;;2.83;100.00;100066.88;5115670;28;20122;-72
2022/02/05 01:04:33;;;;;;;57.28;29.35;;;;;;;2.67;100.00;100063.00;5115481;28;20046;-72
2022/02/05 01:07:02;;;;;;;55.83;29.00;;;;;;;2.76;100.00;100059.22;5115225;28;20039;-72
2022/02/05 01:09:30;;;;;;;61.35;27.63;;;;;;;2.77;100.00;100055.69;5115075;28;20042;-71
2022/02/05 01:12:01;;;;;;;51.55;27.55;;;;;;;3.05;100.00;100064.44;5115509;28;20518;-71
2022/02/05 01:14:40;;;;;;;53.33;27.27;;;;;;;3.05;100.00;100051.25;5115085;28;20118;-71
2022/02/05 01:17:11;;;;;;;53.65;27.85;;;;;;;3.05;100.00;100051.25;5097406;28;20047;-71
2022/02/05 01:20:07;;;;;;;56.22;27.77;;;;;;;2.92;100.00;100042.03;5114734;28;20088;-71
2022/02/05 01:22:39;;;;;;;52.72;28.48;;;;;;;2.83;100.00;100042.31;5095872;28;20405;-71
2022/02/05 01:25:08;;;;;;;57.92;27.15;;;;;;;2.72;100.00;100037.41;5115274;28;20412;-71
2022/02/05 01:27:44;;;;;;;55.50;28.05;;;;;;;2.70;100.00;100033.06;5114608;28;20066;-71
2022/02/05 01:30:20;;;;;;;48.03;25.98;;;;;;;2.87;100.00;100036.03;5115063;28;20092;-71
2022/02/05 01:33:00;;;;;;;52.80;27.67;;;;;;;2.69;100.00;100033.97;5114674;28;20048;-71
2022/02/05 01:35:37;;;;;;;53.55;27.73;;;;;;;2.65;100.00;100021.84;5114677;28;20392;-73
2022/02/05 01:52:32;;;;;;;58.78;28.50;;;;;;;2.05;100.00;100009.63;5152349;27;20351;-71
2022/02/05 01:55:17;;;;;;;56.72;28.48;;;;;;;1.91;100.00;100005.59;5131738;28;20039;-71
2022/02/05 01:57:52;;;;;;;59.30;29.35;;;;;;;2.04;100.00;100006.13;5131127;28;20036;-72
2022/02/05 02:06:06;;;;;;;55.45;28.90;;;;;;;1.88;100.00;100018.84;5131326;28;20044;-71
2022/02/05 02:11:35;;;;;;;53.83;28.77;;;;;;;1.78;100.00;99998.97;5131367;28;20078;-71
2022/02/05 02:14:33;;;;;;;49.90;27.08;;;;;;;1.83;100.00;100009.34;5131595;28;20040;-71
2022/02/05 02:22:45;;;;;;;59.13;27.63;;;;;;;1.92;100.00;100012.59;5122462;28;20104;-71
2022/02/05 02:25:28;;;;;;;54.53;27.85;;;;;;;1.84;100.00;100019.88;5131159;28;20051;-71
2022/02/05 02:28:04;;;;;;;56.30;28.33;;;;;;;1.77;100.00;100012.19;5130906;28;20043;-71
2022/02/05 02:30:38;;;;;;;51.55;27.90;;;;;;;1.73;100.00;100012.25;5130775;28;20039;-72
2022/02/05 02:33:15;;;;;;;54.58;27.25;;;;;;;1.70;100.00;100007.09;5131088;28;20049;-71
2022/02/05 02:35:48;;;;;;;58.80;29.65;;;;;;;1.68;100.00;100011.53;5130762;28;20043;-71
2022/02/05 02:38:21;;;;;;;52.05;28.02;;;;;;;1.77;100.00;100012.19;5130616;28;20139;-71
2022/02/05 02:40:59;;;;;;;55.10;27.50;;;;;;;1.80;100.00;100012.09;5130624;28;20130;-71
2022/02/05 02:43:30;;;;;;;50.90;28.45;;;;;;;1.73;100.00;100006.97;5130773;28;20045;-70
2022/02/05 02:45:58;;;;;;;59.05;27.55;;;;;;;1.67;100.00;100012.44;5130362;28;20556;-71
2022/02/05 02:48:29;;;;;;;54.22;28.48;;;;;;;1.63;100.00;100015.19;5130598;28;20435;-71
2022/02/05 02:56:48;;;;;;;56.38;28.55;;;;;;;1.49;100.00;100017.34;5130584;28;20434;-71
2022/02/05 02:59:28;;;;;;;55.00;29.83;;;;;;;1.44;100.00;100020.06;5130251;28;20063;-71
2022/02/05 03:02:09;;;;;;;54.72;27.90;;;;;;;1.42;100.00;100021.88;5126623;28;20075;-71
2022/02/05 03:04:38;;;;;;;52.75;27.98;;;;;;;1.35;100.00;100023.81;5116512;28;20043;-72
2022/02/05 03:07:06;;;;;;;56.00;27.55;;;;;;;1.39;100.00;100016.72;5116561;28;20464;-71
2022/02/05 03:09:36;;;;;;;52.38;27.95;;;;;;;1.40;100.00;100024.56;5116346;28;20076;-72
2022/02/05 03:12:06;;;;;;;50.20;26.45;;;;;;;1.42;100.00;100016.63;5116720;28;20046;-71
2022/02/05 03:14:34;;;;;;;51.70;27.15;;;;;;;1.49;100.00;100012.06;5116485;28;20066;-71
2022/02/05 03:17:05;;;;;;;54.17;27.10;;;;;;;1.49;100.00;100019.97;5116547;28;20038;-71
2022/02/05 03:19:34;;;;;;;50.97;26.70;;;;;;;1.49;100.00;100018.19;5116120;28;20035;-71
2022/02/05 03:22:02;;;;;;;47.90;27.20;;;;;;;1.41;100.00;100020.16;5116664;28;20074;-71
2022/02/05 03:24:31;;;;;;;54.17;27.52;;;;;;;1.42;100.00;100017.47;5116295;28;20043;-70
2022/02/05 03:27:00;;;;;;;54.75;26.20;;;;;;;1.53;100.00;100016.34;5116036;28;20039;-71
2022/02/05 03:29:28;;;;;;;52.72;26.42;;;;;;;1.77;100.00;100022.69;5116187;28;20096;-71
2022/02/05 03:31:56;;;;;;;55.08;25.25;;;;;;;1.77;100.00;100022.69;5115508;28;20035;-71
2022/02/05 03:34:25;;;;;;;50.47;25.85;;;;;;;1.62;100.00;100024.81;5116129;28;20071;-71
2022/02/05 03:36:53;;;;;;;47.78;24.95;;;;;;;1.59;100.00;100024.06;5115560;28;20521;-71
2022/02/05 03:39:21;;;;;;;52.88;27.02;;;;;;;1.62;100.00;100027.47;5116024;28;20051;-71
2022/02/05 03:41:49;;;;;;;48.88;24.50;;;;;;;1.66;100.00;100037.00;5115734;28;20043;-71
2022/02/05 03:44:19;;;;;;;47.63;26.13;;;;;;;1.73;100.00;100049.06;5115581;28;20032;-70
2022/02/05 03:46:49;;;;;;;48.55;25.17;;;;;;;1.96;100.00;100048.44;5115603;28;20043;-71
2022/02/05 03:49:18;;;;;;;49.75;26.92;;;;;;;1.71;100.00;100023.72;5115917;28;20066;-71
2022/02/05 03:51:48;;;;;;;50.55;25.73;;;;;;;1.65;100.00;100027.41;5115328;28;20139;-72
2022/02/05 03:54:19;;;;;;;50.13;25.65;;;;;;;1.68;100.00;100035.19;5115709;28;20048;-71
2022/02/05 03:56:48;;;;;;;48.67;25.83;;;;;;;1.63;100.00;100052.84;5115540;28;20047;-72
2022/02/05 03:59:16;;;;;;;49.03;26.58;;;;;;;1.69;100.00;100050.06;5115667;28;20400;-70
2022/02/05 04:01:46;;;;;;;55.65;26.83;;;;;;;1.64;100.00;100053.72;5115363;28;20048;-72
2022/02/05 04:04:15;;;;;;;47.10;26.02;;;;;;;1.59;100.00;100056.47;5115236;28;20039;-72
2022/02/05 04:06:43;;;;;;;50.10;25.27;;;;;;;1.62;100.00;100061.63;5114933;28;20052;-72
2022/02/05 04:09:18;;;;;;;50.53;25.55;;;;;;;1.59;100.00;100064.34;5115413;28;20369;-72
2022/02/05 04:11:58;;;;;;;51.40;26.00;;;;;;;1.38;100.00;100062.31;5114947;28;20065;-72
2022/02/05 04:17:14;;;;;;;49.67;25.88;;;;;;;1.09;100.00;100053.38;5115151;28;20048;-72
2022/02/05 04:19:42;;;;;;;47.70;25.98;;;;;;;1.19;100.00;100058.41;5114674;28;20051;-72
2022/02/05 04:22:10;;;;;;;51.10;25.13;;;;;;;1.41;100.00;100034.16;5115535;28;20043;-72
2022/02/05 04:24:38;;;;;;;51.85;25.38;;;;;;;1.39;100.00;100045.63;5115110;28;20529;-71
2022/02/05 04:27:10;;;;;;;46.20;25.70;;;;;;;1.28;100.00;100040.66;5115101;28;20036;-71
2022/02/05 04:29:38;;;;;;;45.50;24.13;;;;;;;1.25;100.00;100039.84;5114808;28;20043;-72
2022/02/05 04:32:13;;;;;;;47.30;24.33;;;;;;;1.26;100.00;100052.09;5114883;28;20036;-72
2022/02/05 04:34:43;;;;;;;47.92;24.92;;;;;;;1.18;100.00;100054.91;5096795;28;20108;-72
2022/02/05 04:37:11;;;;;;;47.90;24.98;;;;;;;1.20;100.00;100063.63;5114832;28;20051;-71
2022/02/05 04:39:47;;;;;;;51.20;25.92;;;;;;;1.13;100.00;100062.03;5114368;28;20051;-77
2022/02/05 04:42:21;;;;;;;54.63;25.02;;;;;;;1.03;100.00;100071.03;5114827;28;20047;-71
2022/02/05 04:45:15;;;;;;;48.00;24.55;;;;;;;0.96;100.00;100075.56;5114904;28;20048;-71
2022/02/05 04:48:07;;;;;;;50.22;24.33;;;;;;;0.98;100.00;100063.28;5114539;28;20127;-73
2022/02/05 04:51:09;;;;;;;46.60;24.30;;;;;;;0.99;100.00;100080.78;5114397;28;20055;-72
2022/02/05 04:53:52;;;;;;;49.15;25.27;;;;;;;1.04;100.00;100078.03;5114106;28;20051;-71
2022/02/05 04:56:40;;;;;;;46.20;24.90;;;;;;;1.04;100.00;100085.91;5114581;28;20051;-71
2022/02/05 05:02:16;;;;;;;44.88;24.25;;;;;;;1.05;100.00;100085.88;5113234;28;20132;-71
2022/02/05 05:04:51;;;;;;;43.88;24.75;;;;;;;1.05;100.00;100101.63;5113929;28;20043;-72
2022/02/05 05:10:28;;;;;;;50.15;23.85;;;;;;;1.07;100.00;100094.59;5051318;28;20076;-72
2022/02/05 05:13:02;;;;;;;48.05;24.00;;;;;;;1.17;100.00;100094.38;5104654;28;20062;-71
2022/02/05 05:19:10;;;;;;;41.78;23.65;;;;;;;1.21;100.00;100109.16;5114011;28;20043;-71
2022/02/05 05:21:09;;;;;;;44.53;22.95;;;;;;;1.32;100.00;100109.75;5114143;28;20048;-71
2022/02/05 05:23:40;;;;;;;43.60;22.95;;;;;;;1.41;100.00;100110.38;5114109;28;20039;-72
2022/02/05 05:26:10;;;;;;;42.88;23.27;;;;;;;1.60;100.00;100120.44;5113632;28;20047;-71
2022/02/05 05:28:38;;;;;;;47.03;22.75;;;;;;;1.77;100.00;100112.97;5113661;28;20047;-71
2022/02/05 05:31:06;;;;;;;46.67;23.08;;;;;;;2.21;100.00;100117.00;5113715;28;20046;-71
2022/02/05 05:33:34;;;;;;;40.50;23.17;;;;;;;2.27;100.00;100116.84;5113805;28;20039;-71
2022/02/05 05:36:03;;;;;;;44.95;23.95;;;;;;;2.45;100.00;100112.81;5113689;28;20049;-71
2022/02/05 05:38:31;;;;;;;43.65;23.33;;;;;;;2.36;100.00;100122.75;5113632;28;20039;-71
2022/02/05 05:41:01;;;;;;;44.42;22.70;;;;;;;2.29;100.00;100130.81;5113266;28;20048;-72
2022/02/05 05:43:43;;;;;;;44.53;22.20;;;;;;;2.26;100.00;100127.41;5113801;28;20491;-72
2022/02/05 05:46:18;;;;;;;38.63;21.80;;;;;;;2.31;100.00;100133.41;5114053;28;20092;-72
2022/02/05 05:48:58;;;;;;;43.70;22.38;;;;;;;2.38;100.00;100131.47;5113578;28;20499;-72
2022/02/05 05:51:27;;;;;;;53.08;26.30;;;;;;;2.53;100.00;100133.66;5113254;28;20457;-71
2022/02/05 05:53:56;;;;;;;42.58;21.83;;;;;;;2.64;100.00;100133.34;5113401;28;20503;-71
2022/02/05 05:56:26;;;;;;;42.95;22.38;;;;;;;2.51;100.00;100138.09;5113658;28;20067;-71
2022/02/05 05:58:54;;;;;;;42.83;22.35;;;;;;;2.39;100.00;100141.94;5113408;28;20043;-72
2022/02/05 06:01:22;;;;;;;43.53;22.67;;;;;;;2.34;100.00;100140.38;5113685;28;20043;-71
2022/02/05 06:03:51;;;;;;;40.45;23.63;;;;;;;2.32;100.00;100145.69;5112989;28;20039;-71
2022/02/05 06:06:20;;;;;;;45.47;23.83;;;;;;;2.35;100.00;100147.34;5113551;28;20084;-72
2022/02/05 06:08:48;;;;;;;46.95;24.73;;;;;;;2.30;100.00;100145.69;5113006;28;20071;-72
2022/02/05 06:11:17;;;;;;;46.17;23.38;;;;;;;2.56;100.00;100154.63;5113642;28;20046;-71
2022/02/05 06:13:47;;;;;;;41.72;22.98;;;;;;;2.64;100.00;100154.41;5113070;28;20040;-71
2022/02/05 06:16:18;;;;;;;44.55;23.88;;;;;;;2.57;100.00;100153.72;5113133;28;20044;-71
2022/02/05 06:18:46;;;;;;;47.00;23.38;;;;;;;2.52;100.00;100160.91;5113731;28;20107;-71
2022/02/05 06:21:14;;;;;;;47.55;23.45;;;;;;;2.48;100.00;100160.13;5113620;28;20114;-72
2022/02/05 06:23:43;;;;;;;46.53;24.60;;;;;;;2.30;100.00;100166.75;5113387;28;20538;-71
2022/02/05 06:26:11;;;;;;;44.05;23.88;;;;;;;2.22;100.00;100174.03;5112781;28;20047;-71
2022/02/05 06:28:41;;;;;;;45.40;23.65;;;;;;;2.05;100.00;100170.97;5113780;28;20100;-71
2022/02/05 06:31:11;;;;;;;46.30;24.67;;;;;;;2.13;100.00;100174.28;5112989;28;20047;-71
2022/02/05 06:33:39;;;;;;;48.40;24.02;;;;;;;2.11;100.00;100176.06;5113284;28;20112;-71
2022/02/05 06:36:07;;;;;;;43.00;21.60;;;;;;;2.14;100.00;100176.00;5113044;28;20040;-71
2022/02/05 06:38:35;;;;;;;40.50;21.85;;;;;;;2.15;100.00;100180.34;5116049;28;20126;-71
2022/02/05 06:41:03;;;;;;;41.10;22.73;;;;;;;2.21;100.00;100188.06;5116898;28;20035;-71
2022/02/05 06:43:32;;;;;;;43.95;21.70;;;;;;;2.37;100.00;100196.41;5116776;28;20047;-71
2022/02/05 06:46:00;;;;;;;42.33;22.30;;;;;;;2.66;100.00;100189.47;5116827;28;20036;-71
2022/02/05 06:48:30;;;;;;;43.00;22.67;;;;;;;2.75;100.00;100191.84;5116966;28;20126;-71
2022/02/05 06:50:58;;;;;;;43.17;22.40;;;;;;;2.78;100.00;100189.97;5116385;28;20052;-71
2022/02/05 06:53:26;;;;;;;46.03;24.42;;;;;;;2.67;100.00;100192.06;5116514;28;20040;-71
2022/02/05 06:55:55;;;;;;;41.15;22.98;;;;;;;2.73;100.00;100194.53;5116662;28;20063;-72
2022/02/05 06:58:23;;;;;;;55.08;26.08;;;;;;;2.94;100.00;100198.28;5116741;28;20075;-71
2022/02/05 07:00:52;;;;;;;52.28;26.90;;;;;;;2.87;100.00;100205.50;5116515;28;20040;-74
2022/02/05 07:03:21;;;;;;;47.75;26.73;;;;;;;2.87;100.00;100216.03;5116724;28;20048;-71
2022/02/05 07:05:51;;;;;;;53.58;27.23;;;;;;;2.67;100.00;100213.13;5116642;28;20377;-71
2022/02/05 07:08:20;;;;;;;57.60;27.83;;;;;;;2.57;100.00;100216.91;5116558;28;20123;-71
2022/02/05 07:10:50;;;;;;;50.40;27.48;;;;;;;2.56;100.00;100229.22;5116574;28;20067;-71
2022/02/05 07:13:20;;;;;;;52.90;27.42;;;;;;;2.56;100.00;100231.84;5116230;28;20040;-71
2022/02/05 07:15:56;;;;;;;53.45;27.48;;;;;;;2.63;100.00;100231.69;5116267;28;20051;-71
2022/02/05 07:18:32;;;;;;;54.17;26.77;;;;;;;2.78;100.00;100236.50;5116517;28;20043;-71
2022/02/05 07:21:06;;;;;;;41.05;23.58;;;;;;;2.94;100.00;100234.31;5116001;28;20044;-72
2022/02/05 07:23:48;;;;;;;49.05;26.02;;;;;;;3.09;100.00;100225.97;5116413;28;20138;-70
2022/02/05 07:29:14;;;;;;;44.72;22.63;;;;;;;3.60;100.00;100255.13;5115701;28;20089;-71
2022/02/05 07:31:46;;;;;;;35.80;19.77;;;;;;;3.91;100.00;100255.00;5116172;28;20063;-71
2022/02/05 07:34:14;;;;;;;37.40;21.15;;;;;;;4.18;100.00;100247.09;5115561;28;20039;-71
2022/02/05 07:36:44;;;;;;;39.67;20.25;;;;;;;4.67;100.00;100251.50;5116023;28;20050;-71
2022/02/05 07:39:13;;;;;;;34.80;19.02;;;;;;;4.88;100.00;100260.44;5115759;28;20100;-71
2022/02/05 07:41:42;;;;;;;33.65;18.90;;;;;;;4.97;100.00;100268.03;5115664;28;20071;-71
2022/02/05 07:44:16;;;;;;;21.90;11.77;;;;;;;5.58;100.00;100260.38;5115428;28;20044;-71
2022/02/05 07:46:47;;;;;;;19.13;11.50;;;;;;;5.68;100.00;100264.38;5116064;28;20036;-70
2022/02/05 07:49:17;;;;;;;10.63;6.15;;;;;;;6.11;100.00;100277.72;5115558;28;20543;-71
2022/02/05 07:51:47;;;;;;;4.75;2.88;;;;;;;6.32;100.00;100256.47;5115539;28;20434;-71
2022/02/05 07:54:16;;;;;;;6.25;3.70;;;;;;;6.49;100.00;100276.09;5115472;28;20093;-72
2022/02/05 07:56:49;;;;;;;6.07;3.45;;;;;;;6.54;100.00;100285.56;5115763;28;20064;-71
2022/02/05 07:59:19;;;;;;;9.35;4.75;;;;;;;6.60;100.00;100279.16;5115406;28;20048;-71
2022/02/05 08:01:47;;;;;;;7.10;3.55;;;;;;;6.56;100.00;100274.88;5115605;28;20565;-71
2022/02/05 08:04:16;;;;;;;7.38;3.50;;;;;;;6.59;100.00;100275.63;5115292;28;20126;-71
2022/02/05 08:06:45;;;;;;;9.50;5.15;;;;;;;6.54;100.00;100258.19;5115440;28;20109;-71
2022/02/05 08:09:19;;;;;;;7.40;4.40;;;;;;;6.62;100.00;100268.47;5115160;28;20541;-72
2022/02/05 08:11:52;;;;;;;6.32;3.10;;;;;;;6.64;100.00;100262.16;5115532;28;20047;-72
2022/02/05 08:14:21;;;;;;;;;;;;;;;6.65;100.00;100274.50;5115474;28;20118;-71
2022/02/05 08:17:01;;;;;;;7.32;3.78;;;;;;;6.68;100.00;100273.53;5096946;28;19920;-72
2022/02/05 08:19:29;;;;;;;6.70;3.58;;;;;;;6.60;100.00;100287.09;5115394;28;20044;-72
2022/02/05 08:22:17;;;;;;;7.68;4.10;;;;;;;6.49;100.00;100282.25;5115150;28;20047;-73
2022/02/05 08:24:47;;;;;;;8.05;4.28;;;;;;;6.40;100.00;100290.59;5115058;28;20374;-72
2022/02/05 08:27:15;;;;;;;6.75;3.95;;;;;;;6.38;100.00;100276.56;5114515;28;20036;-72
2022/02/05 08:29:52;;;;;;;9.43;5.00;;;;;;;6.44;100.00;100291.31;5114627;28;20047;-72
2022/02/05 08:32:25;;;;;;;18.10;3.65;;;;;;;6.37;100.00;100296.03;5114692;28;20073;-72
2022/02/05 08:34:54;;;;;;;7.80;4.88;;;;;;;6.43;100.00;100313.44;5114806;28;20036;-72
2022/02/05 08:37:23;;;;;;;6.63;3.88;;;;;;;6.38;100.00;100308.34;5114399;28;20126;-71
2022/02/05 08:39:52;;;;;;;8.68;5.00;;;;;;;6.52;100.00;100332.47;5114613;28;20036;-71
2022/02/05 08:42:21;;;;;;;10.32;5.25;;;;;;;6.62;100.00;100326.78;5114540;28;20618;-72
2022/02/05 08:44:50;;;;;;;8.90;5.03;;;;;;;6.69;100.00;100329.13;5114639;28;20228;-70
2022/02/05 08:47:18;;;;;;;8.45;4.35;;;;;;;6.73;100.00;100338.66;5114420;28;20031;-71
2022/02/05 08:49:46;;;;;;;7.97;4.43;;;;;;;6.80;100.00;100347.22;5114341;28;20046;-71
2022/02/05 08:52:15;;;;;;;6.90;4.10;;;;;;;6.80;100.00;100340.13;5114356;28;20418;-71
2022/02/05 08:54:43;;;;;;;10.43;4.75;;;;;;;6.82;100.00;100334.75;5114447;28;20046;-71
2022/02/05 08:57:13;;;;;;;9.75;3.88;;;;;;;6.71;100.00;100316.66;5114351;28;20529;-71
2022/02/05 08:59:52;;;;;;;8.73;3.85;;;;;;;6.58;100.00;100332.22;5114103;28;20035;-72
2022/02/05 09:02:27;;;;;;;8.10;4.45;;;;;;;6.58;100.00;100373.78;5113997;28;20435;-70
2022/02/05 09:05:05;;;;;;;6.53;3.40;;;;;;;6.51;100.00;100356.41;5114119;28;20097;-71
2022/02/05 09:07:33;;;;;;;8.73;4.00;;;;;;;6.42;100.00;100351.47;5114252;28;20039;-71
2022/02/05 09:10:09;;;;;;;5.25;2.45;;;;;;;6.45;100.00;100377.84;5114073;28;20495;-71
2022/02/05 09:13:07;;;;;;;6.32;3.78;;;;;;;6.36;100.00;100371.13;5114296;28;20372;-71
2022/02/05 09:15:34;;;;;;;5.85;2.88;;;;;;;6.32;100.00;100391.59;5113989;28;20101;-72
2022/02/05 09:18:06;;;;;;;5.35;2.78;;;;;;;6.38;100.00;100387.84;5113866;28;20067;-72
2022/02/05 09:20:34;;;;;;;6.85;2.70;;;;;;;6.37;100.00;100385.22;5114290;28;20108;-71
2022/02/05 09:23:02;;;;;;;2.92;1.70;;;;;;;6.26;100.00;100402.44;5114094;28;20123;-71
2022/02/05 09:25:31;;;;;;;4.22;2.10;;;;;;;6.30;100.00;100400.53;5114152;28;20490;-71
2022/02/05 09:28:01;;;;;;;3.22;1.73;;;;;;;6.34;100.00;100395.97;5113776;28;20063;-71
2022/02/05 09:30:43;;;;;;;2.92;1.80;;;;;;;6.41;100.00;100392.16;5114107;28;20383;-72
2022/02/05 09:33:11;;;;;;;2.85;1.42;;;;;;;6.37;100.00;100390.53;5113756;28;20053;-72
2022/02/05 09:35:39;;;;;;;1.88;1.15;;;;;;;6.41;100.00;100390.34;5113422;28;20036;-71
2022/02/05 09:38:08;;;;;;;3.72;1.70;;;;;;;6.52;98.27;100411.13;5113606;28;20081;-72
2022/02/05 09:40:36;;;;;;;2.60;1.08;;;;;;;6.58;93.99;100384.38;5113840;28;20035;-72
2022/02/05 09:43:06;;;;;;;1.25;0.68;;;;;;;6.69;92.00;100408.63;5113841;28;20446;-71
2022/02/05 09:45:37;;;;;;;2.90;1.30;;;;;;;6.65;88.15;100407.03;5113908;28;20046;-71
2022/02/05 09:48:05;;;;;;;2.75;0.93;;;;;;;6.71;88.46;100393.53;5113928;28;20460;-72
2022/02/05 09:50:33;;;;;;;2.58;1.40;;;;;;;6.82;87.17;100415.13;5095113;28;20567;-71
2022/02/05 09:53:13;;;;;;;1.23;0.70;;;;;;;6.82;82.15;100393.94;5113768;28;20491;-72
2022/02/05 09:55:42;;;;;;;1.92;0.65;;;;;;;6.81;76.88;100457.63;5113812;28;20032;-71
2022/02/05 09:58:12;;;;;;;7.63;0.85;;;;;;;6.84;75.08;100420.38;5113207;28;20377;-73
2022/02/05 10:00:40;;;;;;;3.00;0.75;;;;;;;6.92;74.38;100425.34;5113720;28;20435;-72
2022/02/05 10:03:25;;;;;;;4.68;1.05;;;;;;;6.93;73.21;100419.13;5113646;28;20122;-72
2022/02/05 10:06:12;;;;;;;3.17;0.90;;;;;;;6.94;71.62;100413.75;5113658;28;20048;-71
2022/02/05 10:08:46;;;;;;;2.38;0.90;;;;;;;6.91;70.67;100408.59;5113645;28;20039;-72
2022/02/05 10:11:14;;;;;;;2.03;0.68;;;;;;;6.87;69.95;100418.47;5113493;28;20039;-72
2022/02/05 10:13:44;;;;;;;2.10;1.00;;;;;;;6.89;70.02;100429.00;5098470;28;20043;-72
2022/02/05 10:16:13;;;;;;;3.25;0.73;;;;;;;6.97;70.27;100428.69;5117108;28;20039;-72
2022/02/05 10:18:44;;;;;;;1.83;0.52;;;;;;;6.96;68.85;100434.94;5117748;28;20085;-72
2022/02/05 10:21:23;;;;;;;1.67;0.77;;;;;;;6.97;68.31;100440.16;5117369;28;20409;-72
2022/02/05 10:24:00;;;;;;;1.70;0.68;;;;;;;6.93;68.47;100432.38;5117702;28;20483;-72
2022/02/05 10:26:34;;;;;;;4.68;1.00;;;;;;;7.00;67.42;100436.50;5117024;28;20105;-71
2022/02/05 10:29:07;;;;;;;2.38;0.70;;;;;;;7.06;66.60;100441.56;5117166;28;20032;-72
2022/02/05 10:32:07;;;;;;;1.55;0.73;;;;;;;7.04;66.51;100438.09;5117145;28;20057;-71
2022/02/05 10:34:53;;;;;;;2.17;0.60;;;;;;;7.04;66.50;100451.34;5116813;28;20035;-71
2022/02/05 10:37:32;;;;;;;1.58;0.90;;;;;;;7.09;67.50;100449.38;5117113;28;20093;-72
2022/02/05 10:40:12;;;;;;;0.53;0.53;;;;;;;7.17;66.23;100453.44;5117109;28;20041;-72
2022/02/05 10:43:03;;;;;;;2.40;0.90;;;;;;;7.18;64.93;100452.50;5117447;28;20311;-71
2022/02/05 10:45:43;;;;;;;1.25;0.57;;;;;;;7.32;64.96;100473.13;5116881;28;20437;-71
2022/02/05 10:48:15;;;;;;;3.72;1.00;;;;;;;7.31;64.99;100476.72;5117119;28;20032;-72
2022/02/05 10:50:44;;;;;;;4.75;1.10;;;;;;;7.33;65.96;100472.19;5116519;28;20376;-72
2022/02/05 10:53:22;;;;;;;1.98;0.90;;;;;;;7.38;65.44;100462.25;5117798;28;20039;-72
2022/02/05 10:56:02;;;;;;;2.05;0.50;;;;;;;7.31;64.75;100467.88;5117243;28;20073;-72
2022/02/05 10:58:45;;;;;;;1.35;0.55;;;;;;;7.28;64.68;100481.28;5116060;28;20032;-71
2022/02/05 11:06:59;;;;;;;2.13;0.90;;;;;;;7.32;64.03;100475.78;5116851;28;20035;-71
2022/02/05 11:09:27;;;;;;;2.75;1.20;;;;;;;7.33;62.46;100474.84;5116499;28;20035;-71
2022/02/05 11:15:08;;;;;;;6.03;1.02;;;;;;;7.44;60.49;100480.56;5116763;28;20063;-72
2022/02/05 11:20:24;;;;;;;2.28;0.52;;;;;;;7.38;58.68;100474.66;5116208;28;20018;-71
2022/02/05 11:22:57;;;;;;;2.28;0.85;;;;;;;7.45;58.36;100478.78;5116045;28;20043;-72
2022/02/05 11:25:31;;;;;;;3.65;1.38;;;;;;;7.49;58.57;100484.81;5116252;28;20040;-72
2022/02/05 11:28:00;;;;;;;4.25;0.90;;;;;;;7.44;57.07;100493.84;5116309;28;20059;-71
2022/02/05 11:30:43;;;;;;;3.05;0.93;;;;;;;7.57;58.11;100488.00;5115932;28;20118;-72
2022/02/05 11:33:25;;;;;;;1.45;0.68;;;;;;;7.58;58.21;100492.38;5116331;28;20038;-72
2022/02/05 11:39:02;;;;;;;2.33;0.80;;;;;;;7.44;59.01;100511.56;5033352;28;20049;-71
2022/02/05 11:41:33;;;;;;;2.75;0.82;;;;;;;7.57;58.54;100504.78;5102464;28;20039;-71
2022/02/05 11:44:24;;;;;;;3.17;0.70;;;;;;;7.55;58.37;100504.00;5115999;28;20110;-71
2022/02/05 11:47:27;;;;;;;2.47;0.73;;;;;;;7.57;57.97;100519.84;5111293;28;20116;-72
2022/02/05 11:50:23;;;;;;;2.25;0.70;;;;;;;7.63;58.79;100508.97;5115990;28;20031;-72
2022/02/05 11:53:10;;;;;;;1.10;0.70;;;;;;;7.38;59.73;100507.38;5116243;28;20128;-71
2022/02/05 11:55:42;;;;;;;1.20;0.80;;;;;;;7.35;60.29;100512.81;5115162;28;20410;-72
2022/02/05 11:58:13;;;;;;;2.30;1.00;;;;;;;7.36;60.10;100527.81;5115746;28;20119;-71
2022/02/05 12:00:48;;;;;;;2.03;0.90;;;;;;;7.33;60.62;100521.75;5115484;28;20544;-72
2022/02/05 12:03:30;;;;;;;1.75;0.70;;;;;;;7.36;60.73;100540.22;5115646;28;20063;-71
2022/02/05 12:06:06;;;;;;;2.45;0.93;;;;;;;7.28;61.39;100529.06;5115595;28;20047;-71
2022/02/05 12:08:37;;;;;;;2.78;0.82;;;;;;;7.36;61.22;100526.94;5115004;28;20383;-72
2022/02/05 12:11:35;;;;;;;4.25;1.02;;;;;;;7.43;58.98;100555.81;5115592;28;20032;-71
2022/02/05 12:14:15;;;;;;;3.95;1.10;;;;;;;7.22;58.82;100535.47;5115501;28;20375;-72
2022/02/05 12:17:13;;;;;;;2.72;1.10;;;;;;;7.21;59.64;100538.19;5115246;28;20461;-71
2022/02/05 12:20:00;;;;;;;3.92;1.23;;;;;;;7.01;60.12;100531.91;5114829;28;20089;-72
2022/02/05 12:23:02;;;;;;;1.98;1.00;;;;;;;7.10;59.58;100541.28;5114933;28;20039;-72
2022/02/05 12:25:31;;;;;;;2.90;0.98;;;;;;;7.13;60.39;100530.53;5114866;28;20035;-72
2022/02/05 12:28:35;;;;;;;2.58;0.98;;;;;;;7.11;60.26;100540.38;5115077;28;20039;-72
2022/02/05 12:31:04;;;;;;;;;;;;;;;7.17;59.36;100542.78;5115538;28;20032;-71
2022/02/05 12:33:44;;;;;;;4.28;1.58;;;;;;;6.96;60.69;100543.66;5114630;28;20383;-71
2022/02/05 12:36:13;;;;;;;2.58;1.20;;;;;;;7.00;60.91;100567.34;5114187;28;20089;-71
2022/02/05 12:38:42;;;;;;;2.85;1.00;;;;;;;6.82;60.07;100568.91;5114446;28;20085;-72
2022/02/05 12:41:13;;;;;;;4.85;1.23;;;;;;;6.88;60.40;100584.59;5114653;28;20202;-72
2022/02/05 12:43:52;;;;;;;4.47;1.00;;;;;;;6.85;60.39;100568.81;5114283;28;20046;-72
2022/02/05 12:46:28;;;;;;;2.30;1.13;;;;;;;6.88;59.63;100573.13;5114791;28;20384;-72
2022/02/05 12:49:01;;;;;;;3.03;1.08;;;;;;;6.85;58.92;100584.72;5114767;28;20118;-72
2022/02/05 12:51:29;;;;;;;3.10;1.40;;;;;;;6.83;58.49;100557.38;5114311;28;20043;-72
2022/02/05 12:54:06;;;;;;;2.95;1.00;;;;;;;6.96;57.80;100551.63;5114298;28;20426;-72
2022/02/05 12:56:36;;;;;;;2.70;1.10;;;;;;;7.04;57.32;100562.75;5114259;28;20040;-72
2022/02/05 12:59:08;;;;;;;2.20;1.00;;;;;;;7.09;57.19;100566.09;5114203;28;20099;-72
2022/02/05 13:01:38;;;;;;;4.85;1.20;;;;;;;7.07;56.47;100557.34;5114253;28;20043;-72
2022/02/05 13:04:13;;;;;;;2.77;0.87;;;;;;;7.18;56.93;100571.03;5114548;28;20369;-72
2022/02/05 13:06:42;;;;;;;3.10;1.13;;;;;;;7.13;57.12;100539.38;5113621;28;20081;-72
2022/02/05 13:09:21;;;;;;;3.80;1.02;;;;;;;7.07;56.89;100544.09;5114165;28;20544;-71
2022/02/05 13:11:55;;;;;;;6.18;1.27;;;;;;;7.17;56.95;100553.38;5114135;28;20063;-72
2022/02/05 13:14:34;;;;;;;3.28;1.00;;;;;;;7.21;55.89;100543.50;5114098;28;20046;-71
2022/02/05 13:17:03;;;;;;;3.25;1.20;;;;;;;7.33;55.83;100554.44;5114189;28;20042;-71
2022/02/05 13:19:50;;;;;;;2.53;1.00;;;;;;;7.32;54.13;100602.28;5113768;28;20044;-72
2022/02/05 13:28:24;;;;;;;2.70;1.30;;;;;;;7.44;54.24;100540.75;5110719;28;20086;-72